sensor_id;sensor_type;location;lat;lon;timestamp;pressure;altitude;pressure_sealevel;temperature;humidity
22862;BME280;11598;50.652;6.172;2023-04-21T00:02:41;96093.22;;;3.41;100.00
22862;BME280;11598;50.652;6.172;2023-04-21T00:12:41;96084.41;;;3.45;100.00
22862;BME280;11598;50.652;6.172;2023-04-21T00:22:41;96087.09;;;3.44;100.00
22862;BME280;11598;50.652;6.172;2023-04-21T00:32:42;96095.59;;;3.44;100.00
22862;BME280;11598;50.652;6.172;2023-04-21T00:42:42;96091.47;;;3.42;100.00
22862;BME280;11598;50.652;6.172;2023-04-21T00:52:43;96072.72;;;3.39;100.00
22862;BME280;11598;50.652;6.172;2023-04-21T01:02:46;96082.84;;;3.43;100.00
22862;BME280;11598;50.652;6.172;2023-04-21T01:12:46;96077.63;;;3.44;100.00
22862;BME280;11598;50.652;6.172;2023-04-21T01:22:47;96083.59;;;3.45;100.00
22862;BME280;11598;50.652;6.172;2023-04-21T01:32:50;96082.34;;;3.52;100.00
22862;BME280;11598;50.652;6.172;2023-04-21T01:42:50;96077.41;;;3.49;100.00
22862;BME280;11598;50.652;6.172;2023-04-21T01:52:51;96084.94;;;3.52;100.00
22862;BME280;11598;50.652;6.172;2023-04-21T02:02:51;96075.72;;;3.48;100.00
22862;BME280;11598;50.652;6.172;2023-04-21T02:12:52;96077.69;;;3.43;100.00
22862;BME280;11598;50.652;6.172;2023-04-21T02:22:52;96069.00;;;3.45;100.00
22862;BME280;11598;50.652;6.172;2023-04-21T02:32:53;96059.72;;;3.43;100.00
22862;BME280;11598;50.652;6.172;2023-04-21T02:42:53;96054.94;;;3.36;100.00
22862;BME280;11598;50.652;6.172;2023-04-21T02:52:53;96058.03;;;3.26;100.00
22862;BME280;11598;50.652;6.172;2023-04-21T03:02:54;96057.34;;;3.06;100.00
22862;BME280;11598;50.652;6.172;2023-04-21T03:12:54;96053.06;;;2.89;100.00
22862;BME280;11598;50.652;6.172;2023-04-21T03:22:55;96052.06;;;2.74;100.00
22862;BME280;11598;50.652;6.172;2023-04-21T03:32:55;96044.94;;;2.64;100.00
22862;BME280;11598;50.652;6.172;2023-04-21T03:42:56;96059.09;;;2.53;100.00
22862;BME280;11598;50.652;6.172;2023-04-21T03:52:56;96045.06;;;2.43;100.00
22862;BME280;11598;50.652;6.172;2023-04-21T04:02:57;96057.50;;;2.33;100.00
22862;BME280;11598;50.652;6.172;2023-04-21T04:12:57;96060.44;;;2.26;100.00
22862;BME280;11598;50.652;6.172;2023-04-21T04:22:57;96062.09;;;2.27;100.00
22862;BME280;11598;50.652;6.172;2023-04-21T04:32:58;96061.19;;;2.28;100.00
22862;BME280;11598;50.652;6.172;2023-04-21T04:42:58;96065.47;;;2.27;100.00
22862;BME280;11598;50.652;6.172;2023-04-21T04:53:01;96066.25;;;2.29;100.00
22862;BME280;11598;50.652;6.172;2023-04-21T05:03:01;96062.47;;;2.37;100.00
22862;BME280;11598;50.652;6.172;2023-04-21T05:13:02;96061.97;;;2.65;100.00
22862;BME280;11598;50.652;6.172;2023-04-21T05:23:02;96063.69;;;2.99;100.00
22862;BME280;11598;50.652;6.172;2023-04-21T05:33:03;96055.16;;;3.32;100.00
22862;BME280;11598;50.652;6.172;2023-04-21T05:43:03;96043.91;;;3.50;100.00
22862;BME280;11598;50.652;6.172;2023-04-21T05:53:03;96044.44;;;3.89;100.00
22862;BME280;11598;50.652;6.172;2023-04-21T06:03:04;96036.91;;;4.32;100.00
22862;BME280;11598;50.652;6.172;2023-04-21T06:13:04;96027.22;;;4.96;100.00
22862;BME280;11598;50.652;6.172;2023-04-21T06:23:05;96042.28;;;5.73;100.00
22862;BME280;11598;50.652;6.172;2023-04-21T06:33:05;96042.19;;;6.31;100.00
22862;BME280;11598;50.652;6.172;2023-04-21T06:43:06;96033.69;;;6.69;97.43
22862;BME280;11598;50.652;6.172;2023-04-21T06:53:09;96028.69;;;7.06;95.41
22862;BME280;11598;50.652;6.172;2023-04-21T07:03:09;96032.56;;;7.62;92.43
22862;BME280;11598;50.652;6.172;2023-04-21T07:13:09;96038.28;;;8.16;89.84
22862;BME280;11598;50.652;6.172;2023-04-21T07:23:10;96017.63;;;8.86;86.92
22862;BME280;11598;50.652;6.172;2023-04-21T07:33:10;96009.34;;;9.28;83.41
22862;BME280;11598;50.652;6.172;2023-04-21T07:43:11;96017.34;;;9.70;81.90
22862;BME280;11598;50.652;6.172;2023-04-21T07:53:11;96032.38;;;10.10;79.64
22862;BME280;11598;50.652;6.172;2023-04-21T08:03:12;96040.50;;;10.16;74.84
22862;BME280;11598;50.652;6.172;2023-04-21T08:13:12;96036.09;;;9.62;75.66
22862;BME280;11598;50.652;6.172;2023-04-21T08:23:13;96034.91;;;9.32;78.61
22862;BME280;11598;50.652;6.172;2023-04-21T08:33:13;96031.00;;;9.16;80.96
22862;BME280;11598;50.652;6.172;2023-04-21T08:43:14;96042.41;;;9.02;83.38
22862;BME280;11598;50.652;6.172;2023-04-21T08:53:15;96036.16;;;8.58;83.66
22862;BME280;11598;50.652;6.172;2023-04-21T09:03:26;96034.91;;;8.63;84.27
22862;BME280;11598;50.652;6.172;2023-04-21T09:13:31;96026.00;;;8.90;84.89
22862;BME280;11598;50.652;6.172;2023-04-21T09:23:50;96024.63;;;8.97;82.67
22862;BME280;11598;50.652;6.172;2023-04-21T09:33:53;96027.56;;;8.93;81.01
22862;BME280;11598;50.652;6.172;2023-04-21T09:43:54;96022.66;;;9.23;80.00
22862;BME280;11598;50.652;6.172;2023-04-21T09:53:58;96020.28;;;9.54;77.24
22862;BME280;11598;50.652;6.172;2023-04-21T10:03:58;96017.94;;;9.51;75.14
22862;BME280;11598;50.652;6.172;2023-04-21T10:13:59;96006.16;;;9.58;75.31
22862;BME280;11598;50.652;6.172;2023-04-21T10:24:00;95995.06;;;9.67;75.60
22862;BME280;11598;50.652;6.172;2023-04-21T10:44:13;95973.84;;;10.17;72.06
22862;BME280;11598;50.652;6.172;2023-04-21T10:54:15;95964.59;;;10.24;68.24
22862;BME280;11598;50.652;6.172;2023-04-21T11:04:17;95946.59;;;10.44;66.44
22862;BME280;11598;50.652;6.172;2023-04-21T11:14:17;95935.66;;;10.61;67.36
22862;BME280;11598;50.652;6.172;2023-04-21T11:24:21;95926.41;;;10.68;68.15
22862;BME280;11598;50.652;6.172;2023-04-21T11:34:22;95903.88;;;10.78;65.02
22862;BME280;11598;50.652;6.172;2023-04-21T11:44:41;95880.84;;;10.95;63.64
22862;BME280;11598;50.652;6.172;2023-04-21T11:54:41;95895.00;;;11.12;62.38
22862;BME280;11598;50.652;6.172;2023-04-21T12:05:04;95886.38;;;11.11;62.64
22862;BME280;11598;50.652;6.172;2023-04-21T12:15:07;95893.44;;;11.40;63.70
22862;BME280;11598;50.652;6.172;2023-04-21T12:25:08;95893.66;;;11.77;56.77
22862;BME280;11598;50.652;6.172;2023-04-21T12:35:08;95887.09;;;11.83;57.89
22862;BME280;11598;50.652;6.172;2023-04-21T12:45:09;95878.50;;;12.12;58.54
22862;BME280;11598;50.652;6.172;2023-04-21T12:55:10;95853.97;;;12.14;58.23
22862;BME280;11598;50.652;6.172;2023-04-21T13:05:12;95859.97;;;12.24;57.51
22862;BME280;11598;50.652;6.172;2023-04-21T13:15:13;95855.44;;;12.36;57.21
22862;BME280;11598;50.652;6.172;2023-04-21T13:25:14;95846.16;;;12.71;55.83
22862;BME280;11598;50.652;6.172;2023-04-21T13:35:14;95836.56;;;12.72;53.20
22862;BME280;11598;50.652;6.172;2023-04-21T13:45:15;95841.06;;;12.79;55.34
22862;BME280;11598;50.652;6.172;2023-04-21T13:55:16;95838.75;;;12.76;54.96
22862;BME280;11598;50.652;6.172;2023-04-21T14:05:16;95822.91;;;12.87;52.53
22862;BME280;11598;50.652;6.172;2023-04-21T14:15:16;95807.09;;;12.99;49.75
22862;BME280;11598;50.652;6.172;2023-04-21T14:25:17;95797.53;;;12.89;50.11
22862;BME280;11598;50.652;6.172;2023-04-21T14:35:17;95797.00;;;12.86;51.23
22862;BME280;11598;50.652;6.172;2023-04-21T14:45:18;95784.94;;;12.85;51.95
22862;BME280;11598;50.652;6.172;2023-04-21T14:55:18;95789.75;;;13.07;52.15
22862;BME280;11598;50.652;6.172;2023-04-21T15:05:18;95782.84;;;13.16;53.24
22862;BME280;11598;50.652;6.172;2023-04-21T15:15:19;95764.78;;;13.68;51.19
22862;BME280;11598;50.652;6.172;2023-04-21T15:25:19;95734.97;;;13.53;50.89
22862;BME280;11598;50.652;6.172;2023-04-21T15:35:20;95736.69;;;12.99;52.54
22862;BME280;11598;50.652;6.172;2023-04-21T15:45:20;95732.06;;;12.37;55.45
22862;BME280;11598;50.652;6.172;2023-04-21T15:55:20;95780.78;;;12.08;57.45
22862;BME280;11598;50.652;6.172;2023-04-21T16:05:22;95849.50;;;11.27;64.68
22862;BME280;11598;50.652;6.172;2023-04-21T16:15:22;95764.00;;;10.22;72.22
22862;BME280;11598;50.652;6.172;2023-04-21T16:25:23;95741.03;;;9.55;75.52
22862;BME280;11598;50.652;6.172;2023-04-21T16:35:23;95726.09;;;9.26;79.28
22862;BME280;11598;50.652;6.172;2023-04-21T16:45:24;95711.34;;;9.26;81.15
22862;BME280;11598;50.652;6.172;2023-04-21T16:55:24;95693.91;;;9.28;82.60
22862;BME280;11598;50.652;6.172;2023-04-21T17:05:25;95680.91;;;9.61;81.48
22862;BME280;11598;50.652;6.172;2023-04-21T17:15:26;95689.72;;;10.00;78.29
22862;BME280;11598;50.652;6.172;2023-04-21T17:25:27;95686.81;;;10.24;77.06
22862;BME280;11598;50.652;6.172;2023-04-21T17:35:27;95675.72;;;10.53;75.98
22862;BME280;11598;50.652;6.172;2023-04-21T17:45:27;95679.22;;;10.83;75.40
22862;BME280;11598;50.652;6.172;2023-04-21T17:55:28;95681.13;;;11.10;75.18
22862;BME280;11598;50.652;6.172;2023-04-21T18:05:28;95768.72;;;11.09;74.97
22862;BME280;11598;50.652;6.172;2023-04-21T18:15:29;95808.63;;;8.98;86.20
22862;BME280;11598;50.652;6.172;2023-04-21T18:25:29;95735.22;;;7.51;99.18
22862;BME280;11598;50.652;6.172;2023-04-21T18:35:30;95723.78;;;6.83;100.00
22862;BME280;11598;50.652;6.172;2023-04-21T18:45:32;95721.13;;;6.72;100.00
22862;BME280;11598;50.652;6.172;2023-04-21T18:55:34;95707.13;;;6.63;100.00
22862;BME280;11598;50.652;6.172;2023-04-21T19:05:35;95713.28;;;6.49;100.00
22862;BME280;11598;50.652;6.172;2023-04-21T19:15:36;95736.59;;;6.48;100.00
22862;BME280;11598;50.652;6.172;2023-04-21T19:25:37;95783.84;;;6.48;100.00
22862;BME280;11598;50.652;6.172;2023-04-21T19:35:38;95790.38;;;6.54;100.00
22862;BME280;11598;50.652;6.172;2023-04-21T19:45:38;95804.63;;;6.47;100.00
22862;BME280;11598;50.652;6.172;2023-04-21T19:55:42;95808.44;;;6.41;100.00
22862;BME280;11598;50.652;6.172;2023-04-21T20:05:43;95774.97;;;6.52;100.00
22862;BME280;11598;50.652;6.172;2023-04-21T20:15:44;95760.63;;;6.48;100.00
22862;BME280;11598;50.652;6.172;2023-04-21T20:25:45;95735.19;;;6.31;100.00
22862;BME280;11598;50.652;6.172;2023-04-21T20:35:45;95725.50;;;6.09;100.00
22862;BME280;11598;50.652;6.172;2023-04-21T20:45:45;95718.47;;;5.85;100.00
22862;BME280;11598;50.652;6.172;2023-04-21T20:55:47;95716.41;;;5.65;100.00
22862;BME280;11598;50.652;6.172;2023-04-21T21:05:47;95718.97;;;5.52;100.00
22862;BME280;11598;50.652;6.172;2023-04-21T21:15:47;95714.31;;;5.44;100.00
22862;BME280;11598;50.652;6.172;2023-04-21T21:25:49;95719.78;;;5.40;100.00
22862;BME280;11598;50.652;6.172;2023-04-21T21:35:50;95718.84;;;5.41;100.00
22862;BME280;11598;50.652;6.172;2023-04-21T21:45:50;95703.19;;;5.44;100.00
22862;BME280;11598;50.652;6.172;2023-04-21T21:55:50;95715.47;;;5.53;100.00
22862;BME280;11598;50.652;6.172;2023-04-21T22:05:51;95701.78;;;5.65;100.00
22862;BME280;11598;50.652;6.172;2023-04-21T22:15:51;95697.97;;;5.84;100.00
22862;BME280;11598;50.652;6.172;2023-04-21T22:25:52;95697.56;;;6.03;100.00
22862;BME280;11598;50.652;6.172;2023-04-21T22:35:52;95698.25;;;6.18;100.00
22862;BME280;11598;50.652;6.172;2023-04-21T22:45:53;95696.69;;;6.28;100.00
22862;BME280;11598;50.652;6.172;2023-04-21T22:55:53;95691.81;;;6.36;100.00
22862;BME280;11598;50.652;6.172;2023-04-21T23:05:54;95686.63;;;6.49;100.00
22862;BME280;11598;50.652;6.172;2023-04-21T23:15:54;95680.78;;;6.71;100.00
22862;BME280;11598;50.652;6.172;2023-04-21T23:25:55;95669.63;;;6.94;100.00
22862;BME280;11598;50.652;6.172;2023-04-21T23:35:55;95672.25;;;7.17;100.00
22862;BME280;11598;50.652;6.172;2023-04-21T23:45:55;95666.94;;;7.43;100.00
22862;BME280;11598;50.652;6.172;2023-04-21T23:55:56;95676.38;;;7.66;100.00
